sensor_id;sensor_type;location;lat;lon;timestamp;pressure;altitude;pressure_sealevel;temperature;humidity
12594;BME280;6362;50.208;9.182;2023-04-06T00:00:23;100181.53;;;-0.02;72.52
12594;BME280;6362;50.208;9.182;2023-04-06T00:02:48;100182.59;;;0.03;72.16
12594;BME280;6362;50.208;9.182;2023-04-06T00:05:14;100188.06;;;0.12;72.87
12594;BME280;6362;50.208;9.182;2023-04-06T00:07:39;100178.09;;;0.18;72.88
12594;BME280;6362;50.208;9.182;2023-04-06T00:10:06;100173.44;;;0.08;73.25
12594;BME280;6362;50.208;9.182;2023-04-06T00:12:31;100168.19;;;0.05;73.00
12594;BME280;6362;50.208;9.182;2023-04-06T00:14:57;100170.50;;;-0.01;72.83
12594;BME280;6362;50.208;9.182;2023-04-06T00:17:22;100169.41;;;-0.08;72.93
12594;BME280;6362;50.208;9.182;2023-04-06T00:19:48;100172.81;;;-0.07;73.67
12594;BME280;6362;50.208;9.182;2023-04-06T00:22:13;100169.53;;;-0.05;73.47
12594;BME280;6362;50.208;9.182;2023-04-06T00:24:39;100163.19;;;-0.14;72.96
12594;BME280;6362;50.208;9.182;2023-04-06T00:27:04;100170.03;;;-0.13;72.77
12594;BME280;6362;50.208;9.182;2023-04-06T00:29:30;100165.47;;;-0.22;73.37
12594;BME280;6362;50.208;9.182;2023-04-06T00:31:55;100156.22;;;-0.39;73.47
12594;BME280;6362;50.208;9.182;2023-04-06T00:34:21;100155.97;;;-0.45;73.68
12594;BME280;6362;50.208;9.182;2023-04-06T00:36:46;100153.81;;;-0.57;74.20
12594;BME280;6362;50.208;9.182;2023-04-06T00:39:12;100152.22;;;-0.55;74.70
12594;BME280;6362;50.208;9.182;2023-04-06T00:41:39;100151.31;;;-0.56;74.66
12594;BME280;6362;50.208;9.182;2023-04-06T00:44:07;100146.03;;;-0.60;75.00
12594;BME280;6362;50.208;9.182;2023-04-06T00:46:32;100153.00;;;-0.56;74.92
12594;BME280;6362;50.208;9.182;2023-04-06T00:48:57;100143.41;;;-0.62;74.52
12594;BME280;6362;50.208;9.182;2023-04-06T00:51:23;100145.81;;;-0.66;74.81
12594;BME280;6362;50.208;9.182;2023-04-06T00:53:48;100138.91;;;-0.67;74.29
12594;BME280;6362;50.208;9.182;2023-04-06T00:56:14;100143.97;;;-0.69;74.27
12594;BME280;6362;50.208;9.182;2023-04-06T00:58:40;100142.53;;;-0.62;73.41
12594;BME280;6362;50.208;9.182;2023-04-06T01:01:05;100134.97;;;-0.61;73.61
12594;BME280;6362;50.208;9.182;2023-04-06T01:03:31;100134.56;;;-0.49;72.44
12594;BME280;6362;50.208;9.182;2023-04-06T01:05:56;100132.94;;;-0.47;72.47
12594;BME280;6362;50.208;9.182;2023-04-06T01:08:24;100131.38;;;-0.43;71.96
12594;BME280;6362;50.208;9.182;2023-04-06T01:10:49;100133.06;;;-0.44;72.23
12594;BME280;6362;50.208;9.182;2023-04-06T01:13:15;100132.22;;;-0.44;72.32
12594;BME280;6362;50.208;9.182;2023-04-06T01:15:41;100132.13;;;-0.46;71.69
12594;BME280;6362;50.208;9.182;2023-04-06T01:18:10;100129.56;;;-0.46;72.13
12594;BME280;6362;50.208;9.182;2023-04-06T01:20:36;100132.84;;;-0.50;72.17
12594;BME280;6362;50.208;9.182;2023-04-06T01:23:01;100132.84;;;-0.50;71.40
12594;BME280;6362;50.208;9.182;2023-04-06T01:25:27;100121.66;;;-0.52;71.70
12594;BME280;6362;50.208;9.182;2023-04-06T01:27:52;100123.41;;;-0.51;71.61
12594;BME280;6362;50.208;9.182;2023-04-06T01:30:18;100125.19;;;-0.50;71.53
12594;BME280;6362;50.208;9.182;2023-04-06T01:32:44;100113.19;;;-0.51;71.54
12594;BME280;6362;50.208;9.182;2023-04-06T01:35:10;100111.25;;;-0.57;71.15
12594;BME280;6362;50.208;9.182;2023-04-06T01:37:36;100110.34;;;-0.59;71.45
12594;BME280;6362;50.208;9.182;2023-04-06T01:40:02;100107.84;;;-0.57;71.06
12594;BME280;6362;50.208;9.182;2023-04-06T01:42:28;100110.34;;;-0.59;71.33
12594;BME280;6362;50.208;9.182;2023-04-06T01:44:53;100114.34;;;-0.65;71.67
12594;BME280;6362;50.208;9.182;2023-04-06T01:47:19;100106.78;;;-0.62;71.08
12594;BME280;6362;50.208;9.182;2023-04-06T01:49:45;100101.63;;;-0.64;71.38
12594;BME280;6362;50.208;9.182;2023-04-06T01:52:10;100103.94;;;-0.70;71.60
12594;BME280;6362;50.208;9.182;2023-04-06T01:54:36;100103.69;;;-0.76;72.25
12594;BME280;6362;50.208;9.182;2023-04-06T01:57:01;100100.13;;;-0.80;71.60
12594;BME280;6362;50.208;9.182;2023-04-06T01:59:27;100097.34;;;-0.86;72.41
12594;BME280;6362;50.208;9.182;2023-04-06T02:01:52;100097.22;;;-0.89;71.93
12594;BME280;6362;50.208;9.182;2023-04-06T02:04:17;100099.06;;;-0.85;71.62
12594;BME280;6362;50.208;9.182;2023-04-06T02:06:43;100098.16;;;-0.87;72.49
12594;BME280;6362;50.208;9.182;2023-04-06T02:09:08;100090.19;;;-0.94;72.66
12594;BME280;6362;50.208;9.182;2023-04-06T02:11:34;100093.41;;;-0.98;73.11
12594;BME280;6362;50.208;9.182;2023-04-06T02:14:00;100102.63;;;-1.02;72.69
12594;BME280;6362;50.208;9.182;2023-04-06T02:16:26;100102.41;;;-1.07;72.61
12594;BME280;6362;50.208;9.182;2023-04-06T02:18:51;100093.47;;;-0.97;74.04
12594;BME280;6362;50.208;9.182;2023-04-06T02:21:17;100094.97;;;-1.02;74.25
12594;BME280;6362;50.208;9.182;2023-04-06T02:23:45;100091.47;;;-1.04;74.25
12594;BME280;6362;50.208;9.182;2023-04-06T02:26:12;100096.41;;;-1.09;74.30
12594;BME280;6362;50.208;9.182;2023-04-06T02:28:37;100092.16;;;-1.08;73.88
12594;BME280;6362;50.208;9.182;2023-04-06T02:31:02;100095.28;;;-1.15;73.28
12594;BME280;6362;50.208;9.182;2023-04-06T02:33:28;100092.72;;;-1.15;73.52
12594;BME280;6362;50.208;9.182;2023-04-06T02:35:53;100095.94;;;-1.19;73.27
12594;BME280;6362;50.208;9.182;2023-04-06T02:38:19;100082.25;;;-1.21;73.51
12594;BME280;6362;50.208;9.182;2023-04-06T02:40:44;100087.38;;;-1.21;73.20
12594;BME280;6362;50.208;9.182;2023-04-06T02:43:10;100089.09;;;-1.20;73.02
12594;BME280;6362;50.208;9.182;2023-04-06T02:45:35;100088.28;;;-1.19;73.25
12594;BME280;6362;50.208;9.182;2023-04-06T02:48:01;100084.06;;;-1.19;73.24
12594;BME280;6362;50.208;9.182;2023-04-06T02:50:26;100085.88;;;-1.16;72.64
12594;BME280;6362;50.208;9.182;2023-04-06T02:52:52;100081.41;;;-1.22;72.70
12594;BME280;6362;50.208;9.182;2023-04-06T02:55:18;100078.91;;;-1.20;72.95
12594;BME280;6362;50.208;9.182;2023-04-06T02:57:45;100078.09;;;-1.19;72.07
12594;BME280;6362;50.208;9.182;2023-04-06T03:00:11;100082.25;;;-1.21;72.17
12594;BME280;6362;50.208;9.182;2023-04-06T03:02:37;100085.59;;;-1.22;72.39
12594;BME280;6362;50.208;9.182;2023-04-06T03:05:02;100078.94;;;-1.19;72.22
12594;BME280;6362;50.208;9.182;2023-04-06T03:07:28;100082.25;;;-1.21;72.17
12594;BME280;6362;50.208;9.182;2023-04-06T03:09:54;100077.16;;;-1.21;72.29
12594;BME280;6362;50.208;9.182;2023-04-06T03:12:20;100079.78;;;-1.20;72.02
12594;BME280;6362;50.208;9.182;2023-04-06T03:14:45;100078.03;;;-1.21;72.21
12594;BME280;6362;50.208;9.182;2023-04-06T03:17:10;100083.13;;;-1.21;72.16
12594;BME280;6362;50.208;9.182;2023-04-06T03:19:36;100083.81;;;-1.25;72.31
12594;BME280;6362;50.208;9.182;2023-04-06T03:22:02;100083.75;;;-1.26;72.05
12594;BME280;6362;50.208;9.182;2023-04-06T03:24:27;100077.03;;;-1.24;72.16
12594;BME280;6362;50.208;9.182;2023-04-06T03:26:53;100076.97;;;-1.26;72.32
12594;BME280;6362;50.208;9.182;2023-04-06T03:29:18;100082.94;;;-1.25;72.25
12594;BME280;6362;50.208;9.182;2023-04-06T03:31:44;100078.09;;;-1.19;71.63
12594;BME280;6362;50.208;9.182;2023-04-06T03:34:09;100083.03;;;-1.22;71.81
12594;BME280;6362;50.208;9.182;2023-04-06T03:36:35;100075.34;;;-1.24;72.17
12594;BME280;6362;50.208;9.182;2023-04-06T03:39:01;100076.09;;;-1.26;72.50
12594;BME280;6362;50.208;9.182;2023-04-06T03:41:26;100079.47;;;-1.27;72.21
12594;BME280;6362;50.208;9.182;2023-04-06T03:43:52;100082.19;;;-1.23;72.46
12594;BME280;6362;50.208;9.182;2023-04-06T03:46:18;100087.41;;;-1.20;72.12
12594;BME280;6362;50.208;9.182;2023-04-06T03:48:43;100092.53;;;-1.20;71.61
12594;BME280;6362;50.208;9.182;2023-04-06T03:51:08;100090.69;;;-1.22;71.67
12594;BME280;6362;50.208;9.182;2023-04-06T03:53:34;100093.13;;;-1.25;72.17
12594;BME280;6362;50.208;9.182;2023-04-06T03:56:02;100102.34;;;-1.29;72.27
12594;BME280;6362;50.208;9.182;2023-04-06T03:58:27;100098.00;;;-1.31;72.34
12594;BME280;6362;50.208;9.182;2023-04-06T04:00:52;100104.69;;;-1.34;72.22
12594;BME280;6362;50.208;9.182;2023-04-06T04:03:18;100102.22;;;-1.32;72.36
12594;BME280;6362;50.208;9.182;2023-04-06T04:05:43;100105.59;;;-1.33;72.40
12594;BME280;6362;50.208;9.182;2023-04-06T04:08:09;100106.44;;;-1.33;72.40
12594;BME280;6362;50.208;9.182;2023-04-06T04:10:34;100109.13;;;-1.29;72.08
12594;BME280;6362;50.208;9.182;2023-04-06T04:13:00;100115.03;;;-1.30;72.31
12594;BME280;6362;50.208;9.182;2023-04-06T04:15:25;100114.00;;;-1.34;71.93
12594;BME280;6362;50.208;9.182;2023-04-06T04:17:51;100117.44;;;-1.34;72.10
12594;BME280;6362;50.208;9.182;2023-04-06T04:20:16;100122.53;;;-1.34;72.09
12594;BME280;6362;50.208;9.182;2023-04-06T04:22:42;100122.16;;;-1.43;72.24
12594;BME280;6362;50.208;9.182;2023-04-06T04:25:08;100121.03;;;-1.49;72.55
12594;BME280;6362;50.208;9.182;2023-04-06T04:27:34;100114.91;;;-1.53;72.55
12594;BME280;6362;50.208;9.182;2023-04-06T04:29:59;100108.88;;;-1.55;72.72
12594;BME280;6362;50.208;9.182;2023-04-06T04:32:25;100117.47;;;-1.53;72.52
12594;BME280;6362;50.208;9.182;2023-04-06T04:34:53;100116.59;;;-1.53;72.74
12594;BME280;6362;50.208;9.182;2023-04-06T04:37:18;100114.91;;;-1.53;73.16
12594;BME280;6362;50.208;9.182;2023-04-06T04:39:45;100122.63;;;-1.51;72.49
12594;BME280;6362;50.208;9.182;2023-04-06T04:42:10;100115.72;;;-1.54;72.29
12594;BME280;6362;50.208;9.182;2023-04-06T04:44:36;100121.75;;;-1.52;73.33
12594;BME280;6362;50.208;9.182;2023-04-06T04:47:01;100120.81;;;-1.54;73.20
12594;BME280;6362;50.208;9.182;2023-04-06T04:49:26;100116.66;;;-1.52;73.65
12594;BME280;6362;50.208;9.182;2023-04-06T04:51:52;100117.41;;;-1.54;73.38
12594;BME280;6362;50.208;9.182;2023-04-06T04:54:18;100115.06;;;-1.50;73.51
12594;BME280;6362;50.208;9.182;2023-04-06T04:56:44;100115.84;;;-1.51;72.90
12594;BME280;6362;50.208;9.182;2023-04-06T04:59:10;100114.03;;;-1.53;73.36
12594;BME280;6362;50.208;9.182;2023-04-06T05:01:35;100113.38;;;-1.49;73.13
12594;BME280;6362;50.208;9.182;2023-04-06T05:04:01;100117.88;;;-1.44;72.97
12594;BME280;6362;50.208;9.182;2023-04-06T05:06:26;100122.16;;;-1.43;73.27
12594;BME280;6362;50.208;9.182;2023-04-06T05:08:52;100115.59;;;-1.38;73.01
12594;BME280;6362;50.208;9.182;2023-04-06T05:11:17;100120.06;;;-1.32;72.48
12594;BME280;6362;50.208;9.182;2023-04-06T05:13:43;100125.22;;;-1.30;72.66
12594;BME280;6362;50.208;9.182;2023-04-06T05:16:08;100123.75;;;-1.25;72.12
12594;BME280;6362;50.208;9.182;2023-04-06T05:18:34;100119.66;;;-1.22;72.32
12594;BME280;6362;50.208;9.182;2023-04-06T05:20:59;100125.81;;;-1.17;72.05
12594;BME280;6362;50.208;9.182;2023-04-06T05:23:25;100118.34;;;-1.12;71.83
12594;BME280;6362;50.208;9.182;2023-04-06T05:25:50;100123.59;;;-1.09;71.38
12594;BME280;6362;50.208;9.182;2023-04-06T05:28:16;100117.88;;;-1.03;71.36
12594;BME280;6362;50.208;9.182;2023-04-06T05:30:45;100122.22;;;-1.01;71.52
12594;BME280;6362;50.208;9.182;2023-04-06T05:33:11;100123.19;;;-0.99;71.35
12594;BME280;6362;50.208;9.182;2023-04-06T05:35:36;100132.63;;;-0.96;71.41
12594;BME280;6362;50.208;9.182;2023-04-06T05:38:02;100128.63;;;-0.90;72.00
12594;BME280;6362;50.208;9.182;2023-04-06T05:40:27;100137.06;;;-0.92;71.71
12594;BME280;6362;50.208;9.182;2023-04-06T05:42:53;100135.22;;;-0.95;72.42
12594;BME280;6362;50.208;9.182;2023-04-06T05:45:19;100139.56;;;-0.94;72.44
12594;BME280;6362;50.208;9.182;2023-04-06T05:47:46;100139.66;;;-0.91;72.42
12594;BME280;6362;50.208;9.182;2023-04-06T05:50:13;100142.28;;;-0.89;72.71
12594;BME280;6362;50.208;9.182;2023-04-06T05:52:39;100143.09;;;-0.90;72.86
12594;BME280;6362;50.208;9.182;2023-04-06T05:55:08;100144.16;;;-0.85;72.01
12594;BME280;6362;50.208;9.182;2023-04-06T05:57:34;100144.34;;;-0.81;72.47
12594;BME280;6362;50.208;9.182;2023-04-06T06:00:00;100149.75;;;-0.73;71.78
12594;BME280;6362;50.208;9.182;2023-04-06T06:02:25;100146.53;;;-0.69;71.82
12594;BME280;6362;50.208;9.182;2023-04-06T06:04:51;100147.09;;;-0.55;71.17
12594;BME280;6362;50.208;9.182;2023-04-06T06:07:16;100152.75;;;-0.41;71.69
12594;BME280;6362;50.208;9.182;2023-04-06T06:09:42;100149.84;;;-0.28;70.66
12594;BME280;6362;50.208;9.182;2023-04-06T06:12:08;100151.69;;;-0.03;70.08
12594;BME280;6362;50.208;9.182;2023-04-06T06:14:34;100152.91;;;0.07;69.58
12594;BME280;6362;50.208;9.182;2023-04-06T06:16:59;100148.13;;;0.16;69.08
12594;BME280;6362;50.208;9.182;2023-04-06T06:19:25;100151.44;;;0.36;69.00
12594;BME280;6362;50.208;9.182;2023-04-06T06:21:50;100137.56;;;0.53;68.84
12594;BME280;6362;50.208;9.182;2023-04-06T06:24:16;100139.16;;;0.73;69.06
12594;BME280;6362;50.208;9.182;2023-04-06T06:26:41;100139.91;;;0.95;67.94
12594;BME280;6362;50.208;9.182;2023-04-06T06:29:08;100126.03;;;1.14;66.24
12594;BME280;6362;50.208;9.182;2023-04-06T06:31:33;100136.00;;;1.31;65.41
12594;BME280;6362;50.208;9.182;2023-04-06T06:33:59;100136.72;;;1.54;64.39
12594;BME280;6362;50.208;9.182;2023-04-06T06:36:25;100138.13;;;1.72;63.74
12594;BME280;6362;50.208;9.182;2023-04-06T06:38:51;100130.22;;;1.93;63.75
12594;BME280;6362;50.208;9.182;2023-04-06T06:41:16;100133.41;;;2.13;62.58
12594;BME280;6362;50.208;9.182;2023-04-06T06:43:42;100131.41;;;2.32;62.11
12594;BME280;6362;50.208;9.182;2023-04-06T06:46:07;100127.66;;;2.51;61.00
12594;BME280;6362;50.208;9.182;2023-04-06T06:48:33;100127.31;;;2.69;60.27
12594;BME280;6362;50.208;9.182;2023-04-06T06:50:58;100119.94;;;2.83;58.87
12594;BME280;6362;50.208;9.182;2023-04-06T06:53:24;100130.72;;;3.01;58.74
12594;BME280;6362;50.208;9.182;2023-04-06T06:55:50;100132.78;;;3.16;58.16
12594;BME280;6362;50.208;9.182;2023-04-06T06:58:18;100130.75;;;3.36;57.53
12594;BME280;6362;50.208;9.182;2023-04-06T07:00:44;100130.16;;;3.48;57.50
12594;BME280;6362;50.208;9.182;2023-04-06T07:03:09;100129.69;;;3.64;57.59
12594;BME280;6362;50.208;9.182;2023-04-06T07:05:35;100133.47;;;3.78;57.51
12594;BME280;6362;50.208;9.182;2023-04-06T07:08:00;100127.75;;;3.91;56.12
12594;BME280;6362;50.208;9.182;2023-04-06T07:10:26;100127.25;;;4.06;55.76
12594;BME280;6362;50.208;9.182;2023-04-06T07:12:51;100131.78;;;4.18;56.07
12594;BME280;6362;50.208;9.182;2023-04-06T07:15:17;100121.88;;;4.38;54.80
12594;BME280;6362;50.208;9.182;2023-04-06T07:17:43;100121.34;;;4.54;53.79
12594;BME280;6362;50.208;9.182;2023-04-06T07:20:11;100126.81;;;4.69;53.79
12594;BME280;6362;50.208;9.182;2023-04-06T07:22:38;100122.84;;;4.87;53.94
12594;BME280;6362;50.208;9.182;2023-04-06T07:25:04;100125.59;;;4.96;52.83
12594;BME280;6362;50.208;9.182;2023-04-06T07:27:29;100124.94;;;5.09;52.68
12594;BME280;6362;50.208;9.182;2023-04-06T07:29:55;100126.06;;;5.22;53.15
12594;BME280;6362;50.208;9.182;2023-04-06T07:32:20;100127.13;;;5.35;52.73
12594;BME280;6362;50.208;9.182;2023-04-06T07:34:46;100127.41;;;5.51;51.52
12594;BME280;6362;50.208;9.182;2023-04-06T07:37:12;100128.53;;;5.69;51.34
12594;BME280;6362;50.208;9.182;2023-04-06T07:39:37;100128.66;;;5.78;50.85
12594;BME280;6362;50.208;9.182;2023-04-06T07:42:03;100120.28;;;5.93;50.47
12594;BME280;6362;50.208;9.182;2023-04-06T07:44:28;100120.53;;;6.09;49.97
12594;BME280;6362;50.208;9.182;2023-04-06T07:46:54;100119.81;;;6.21;50.35
12594;BME280;6362;50.208;9.182;2023-04-06T07:49:19;100116.69;;;6.47;48.98
12594;BME280;6362;50.208;9.182;2023-04-06T07:51:46;100114.31;;;6.64;47.77
12594;BME280;6362;50.208;9.182;2023-04-06T07:54:11;100122.06;;;6.62;47.66
12594;BME280;6362;50.208;9.182;2023-04-06T07:56:37;100121.34;;;6.75;48.47
12594;BME280;6362;50.208;9.182;2023-04-06T07:59:02;100111.91;;;6.80;47.87
12594;BME280;6362;50.208;9.182;2023-04-06T08:01:28;100111.31;;;7.07;46.29
12594;BME280;6362;50.208;9.182;2023-04-06T08:03:55;100113.19;;;7.22;45.83
12594;BME280;6362;50.208;9.182;2023-04-06T08:06:21;100113.25;;;7.31;45.50
12594;BME280;6362;50.208;9.182;2023-04-06T08:08:46;100112.53;;;7.48;46.34
12594;BME280;6362;50.208;9.182;2023-04-06T08:11:12;100111.84;;;7.70;43.54
12594;BME280;6362;50.208;9.182;2023-04-06T08:13:37;100111.94;;;7.85;43.29
12594;BME280;6362;50.208;9.182;2023-04-06T08:16:03;100112.00;;;7.98;43.53
12594;BME280;6362;50.208;9.182;2023-04-06T08:18:29;100109.44;;;8.04;43.01
12594;BME280;6362;50.208;9.182;2023-04-06T08:20:55;100114.66;;;8.08;44.10
12594;BME280;6362;50.208;9.182;2023-04-06T08:23:21;100104.38;;;8.27;40.38
12594;BME280;6362;50.208;9.182;2023-04-06T08:25:46;100107.09;;;8.39;39.26
12594;BME280;6362;50.208;9.182;2023-04-06T08:28:12;100104.56;;;8.56;39.58
12594;BME280;6362;50.208;9.182;2023-04-06T08:30:41;100104.56;;;8.63;39.89
12594;BME280;6362;50.208;9.182;2023-04-06T08:33:06;100111.53;;;8.84;39.09
12594;BME280;6362;50.208;9.182;2023-04-06T08:35:32;100111.56;;;8.98;38.87
12594;BME280;6362;50.208;9.182;2023-04-06T08:37:57;100111.56;;;9.10;39.10
12594;BME280;6362;50.208;9.182;2023-04-06T08:40:23;100107.25;;;9.05;38.65
12594;BME280;6362;50.208;9.182;2023-04-06T08:42:54;100109.88;;;9.23;39.22
12594;BME280;6362;50.208;9.182;2023-04-06T08:45:21;100114.19;;;9.53;38.30
12594;BME280;6362;50.208;9.182;2023-04-06T08:47:53;100112.47;;;9.52;37.62
12594;BME280;6362;50.208;9.182;2023-04-06T08:50:20;100116.78;;;9.53;38.48
12594;BME280;6362;50.208;9.182;2023-04-06T08:52:48;100113.34;;;9.56;39.03
12594;BME280;6362;50.208;9.182;2023-04-06T08:55:14;100110.72;;;9.72;39.61
12594;BME280;6362;50.208;9.182;2023-04-06T08:57:40;100110.66;;;10.11;39.32
12594;BME280;6362;50.208;9.182;2023-04-06T09:00:08;100110.56;;;10.41;39.67
12594;BME280;6362;50.208;9.182;2023-04-06T09:02:38;100116.50;;;10.72;40.22
12594;BME280;6362;50.208;9.182;2023-04-06T09:05:04;100104.28;;;10.82;38.21
12594;BME280;6362;50.208;9.182;2023-04-06T09:07:30;100112.78;;;11.12;40.21
12594;BME280;6362;50.208;9.182;2023-04-06T09:09:56;100103.03;;;11.38;38.46
12594;BME280;6362;50.208;9.182;2023-04-06T09:12:23;100109.88;;;11.53;38.00
12594;BME280;6362;50.208;9.182;2023-04-06T09:14:49;100112.34;;;11.65;38.86
12594;BME280;6362;50.208;9.182;2023-04-06T09:17:25;100111.38;;;11.83;34.96
12594;BME280;6362;50.208;9.182;2023-04-06T09:19:51;100104.31;;;11.93;37.06
12594;BME280;6362;50.208;9.182;2023-04-06T09:22:17;100099.91;;;12.01;35.43
12594;BME280;6362;50.208;9.182;2023-04-06T09:24:46;100102.25;;;12.21;35.96
12594;BME280;6362;50.208;9.182;2023-04-06T09:27:12;100090.59;;;12.49;36.37
12594;BME280;6362;50.208;9.182;2023-04-06T09:29:37;100088.69;;;12.63;35.07
12594;BME280;6362;50.208;9.182;2023-04-06T09:32:07;100090.25;;;12.78;35.22
12594;BME280;6362;50.208;9.182;2023-04-06T09:34:42;100081.75;;;13.24;32.80
12594;BME280;6362;50.208;9.182;2023-04-06T09:37:15;100086.47;;;13.53;32.77
12594;BME280;6362;50.208;9.182;2023-04-06T09:39:40;100080.06;;;13.72;30.67
12594;BME280;6362;50.208;9.182;2023-04-06T09:42:06;100085.22;;;13.77;33.04
12594;BME280;6362;50.208;9.182;2023-04-06T09:44:31;100080.97;;;14.16;30.67
12594;BME280;6362;50.208;9.182;2023-04-06T09:46:57;100079.34;;;14.09;29.58
12594;BME280;6362;50.208;9.182;2023-04-06T09:49:23;100080.00;;;14.20;31.63
12594;BME280;6362;50.208;9.182;2023-04-06T09:51:54;100084.56;;;14.11;29.31
12594;BME280;6362;50.208;9.182;2023-04-06T09:54:22;100077.53;;;14.13;29.35
12594;BME280;6362;50.208;9.182;2023-04-06T10:02:32;100072.06;;;13.80;29.04
12594;BME280;6362;50.208;9.182;2023-04-06T10:05:25;100072.22;;;13.71;29.02
12594;BME280;6362;50.208;9.182;2023-04-06T10:07:54;100063.41;;;13.77;29.06
12594;BME280;6362;50.208;9.182;2023-04-06T10:10:21;100069.81;;;14.07;29.63
12594;BME280;6362;50.208;9.182;2023-04-06T10:12:47;100062.19;;;14.39;28.68
12594;BME280;6362;50.208;9.182;2023-04-06T10:15:14;100062.97;;;14.43;29.97
12594;BME280;6362;50.208;9.182;2023-04-06T10:17:39;100066.91;;;14.64;29.98
12594;BME280;6362;50.208;9.182;2023-04-06T10:23:10;100064.63;;;14.48;29.26
12594;BME280;6362;50.208;9.182;2023-04-06T10:25:52;100077.25;;;14.70;29.69
12594;BME280;6362;50.208;9.182;2023-04-06T10:28:19;100072.63;;;14.83;28.76
12594;BME280;6362;50.208;9.182;2023-04-06T10:30:45;100065.69;;;14.80;28.04
12594;BME280;6362;50.208;9.182;2023-04-06T10:35:39;100057.56;;;14.52;29.12
12594;BME280;6362;50.208;9.182;2023-04-06T10:38:05;100060.22;;;14.07;29.72
12594;BME280;6362;50.208;9.182;2023-04-06T10:40:31;100060.34;;;14.01;29.98
12594;BME280;6362;50.208;9.182;2023-04-06T10:43:11;100061.38;;;13.92;30.79
12594;BME280;6362;50.208;9.182;2023-04-06T10:45:37;100056.91;;;13.97;29.71
12594;BME280;6362;50.208;9.182;2023-04-06T10:48:18;100066.44;;;14.02;29.83
12594;BME280;6362;50.208;9.182;2023-04-06T10:50:49;100059.41;;;14.04;30.11
12594;BME280;6362;50.208;9.182;2023-04-06T10:53:25;100049.28;;;13.87;29.75
12594;BME280;6362;50.208;9.182;2023-04-06T10:55:52;100042.50;;;13.77;29.87
12594;BME280;6362;50.208;9.182;2023-04-06T10:58:19;100035.97;;;14.41;29.58
12594;BME280;6362;50.208;9.182;2023-04-06T11:00:46;100035.84;;;14.48;29.69
12594;BME280;6362;50.208;9.182;2023-04-06T11:03:12;100040.22;;;14.46;30.36
12594;BME280;6362;50.208;9.182;2023-04-06T11:05:38;100036.22;;;14.72;29.63
12594;BME280;6362;50.208;9.182;2023-04-06T11:08:04;100044.47;;;15.28;28.62
12594;BME280;6362;50.208;9.182;2023-04-06T11:10:29;100048.66;;;15.35;28.41
12594;BME280;6362;50.208;9.182;2023-04-06T11:12:56;100042.72;;;15.63;27.20
12594;BME280;6362;50.208;9.182;2023-04-06T11:15:22;100040.16;;;15.94;26.51
12594;BME280;6362;50.208;9.182;2023-04-06T11:17:47;100028.28;;;16.10;26.69
12594;BME280;6362;50.208;9.182;2023-04-06T11:20:14;100024.97;;;16.05;26.02
12594;BME280;6362;50.208;9.182;2023-04-06T11:22:53;100038.03;;;16.36;26.50
12594;BME280;6362;50.208;9.182;2023-04-06T11:25:19;100029.69;;;16.23;26.18
12594;BME280;6362;50.208;9.182;2023-04-06T11:27:46;100025.75;;;15.76;27.34
12594;BME280;6362;50.208;9.182;2023-04-06T11:30:13;100021.94;;;15.88;27.20
12594;BME280;6362;50.208;9.182;2023-04-06T11:32:40;100019.19;;;15.92;27.04
12594;BME280;6362;50.208;9.182;2023-04-06T11:35:10;100011.91;;;15.71;26.88
12594;BME280;6362;50.208;9.182;2023-04-06T11:37:36;100013.34;;;15.50;27.37
12594;BME280;6362;50.208;9.182;2023-04-06T11:40:02;100010.75;;;15.81;28.53
12594;BME280;6362;50.208;9.182;2023-04-06T11:42:29;99997.78;;;15.42;26.25
12594;BME280;6362;50.208;9.182;2023-04-06T11:44:58;100012.06;;;15.65;27.19
12594;BME280;6362;50.208;9.182;2023-04-06T11:47:42;100011.94;;;14.64;27.38
12594;BME280;6362;50.208;9.182;2023-04-06T11:50:13;100006.97;;;14.10;28.52
12594;BME280;6362;50.208;9.182;2023-04-06T11:52:40;100001.13;;;14.79;28.17
12594;BME280;6362;50.208;9.182;2023-04-06T11:55:13;100002.13;;;15.11;27.42
12594;BME280;6362;50.208;9.182;2023-04-06T11:57:40;99997.03;;;15.37;27.08
12594;BME280;6362;50.208;9.182;2023-04-06T12:00:07;100001.09;;;15.16;27.73
12594;BME280;6362;50.208;9.182;2023-04-06T12:02:33;100010.44;;;14.91;27.95
12594;BME280;6362;50.208;9.182;2023-04-06T12:04:59;99998.34;;;14.85;27.84
12594;BME280;6362;50.208;9.182;2023-04-06T12:07:24;99991.03;;;14.99;27.25
12594;BME280;6362;50.208;9.182;2023-04-06T12:09:50;99988.53;;;15.29;27.49
12594;BME280;6362;50.208;9.182;2023-04-06T12:12:16;99985.50;;;16.08;26.83
12594;BME280;6362;50.208;9.182;2023-04-06T12:14:43;99968.63;;;17.01;26.87
12594;BME280;6362;50.208;9.182;2023-04-06T12:17:08;99961.31;;;17.60;24.61
12594;BME280;6362;50.208;9.182;2023-04-06T12:19:33;99967.69;;;16.77;24.98
12594;BME280;6362;50.208;9.182;2023-04-06T12:21:59;99976.97;;;16.87;25.74
12594;BME280;6362;50.208;9.182;2023-04-06T12:24:24;99970.13;;;17.34;25.68
12594;BME280;6362;50.208;9.182;2023-04-06T12:26:50;99974.84;;;17.50;25.05
12594;BME280;6362;50.208;9.182;2023-04-06T12:29:15;99967.34;;;17.39;24.79
12594;BME280;6362;50.208;9.182;2023-04-06T12:31:41;99961.47;;;17.06;24.80
12594;BME280;6362;50.208;9.182;2023-04-06T12:34:08;99968.38;;;17.08;23.95
12594;BME280;6362;50.208;9.182;2023-04-06T12:36:33;99960.69;;;17.79;25.38
12594;BME280;6362;50.208;9.182;2023-04-06T12:39:00;99965.69;;;18.32;23.76
12594;BME280;6362;50.208;9.182;2023-04-06T12:41:27;99955.88;;;18.81;24.47
12594;BME280;6362;50.208;9.182;2023-04-06T12:43:52;99960.81;;;18.44;22.54
12594;BME280;6362;50.208;9.182;2023-04-06T12:46:18;99955.72;;;17.94;23.62
12594;BME280;6362;50.208;9.182;2023-04-06T12:48:44;99959.47;;;17.37;23.39
12594;BME280;6362;50.208;9.182;2023-04-06T12:51:09;99947.91;;;17.18;23.36
12594;BME280;6362;50.208;9.182;2023-04-06T12:53:35;99948.94;;;17.39;23.25
12594;BME280;6362;50.208;9.182;2023-04-06T12:56:02;99946.41;;;17.61;22.87
12594;BME280;6362;50.208;9.182;2023-04-06T12:58:27;99942.91;;;17.60;23.01
12594;BME280;6362;50.208;9.182;2023-04-06T13:00:55;99946.38;;;18.09;22.96
12594;BME280;6362;50.208;9.182;2023-04-06T13:03:21;99945.53;;;17.85;22.72
12594;BME280;6362;50.208;9.182;2023-04-06T13:05:50;99942.13;;;17.33;23.62
12594;BME280;6362;50.208;9.182;2023-04-06T13:08:18;99945.06;;;17.24;24.47